Time;durP1;ratioP1;P1;durP2;ratioP2;P2;SDS_P1;SDS_P2;PMS_P1;PMS_P2;Temp;Humidity;BMP_temperature;BMP_pressure;BME280_temperature;BME280_humidity;BME280_pressure;Samples;Min_cycle;Max_cycle;Signal;HPM_P1;HPM_P2
2022/06/03 00:03:11;;;;;;;5.25;1.95;;;;;;;;;;4750503;30;20139;-52
2022/06/03 00:05:59;;;;;;;7.75;1.92;;;;;;;;;;4748242;30;20045;-49
2022/06/03 00:08:54;;;;;;;5.93;2.13;;;;;;;;;;4748284;30;20052;-48
2022/06/03 00:11:27;;;;;;;5.65;1.88;;;;;;;;;;4750155;30;20464;-50
2022/06/03 00:14:24;;;;;;;3.40;1.92;;;;;;;;;;4751651;30;20523;-48
2022/06/03 00:17:03;;;;;;;3.33;2.42;;;;;;;;;;4752347;30;20464;-48
2022/06/03 00:19:51;;;;;;;4.40;1.80;;;;;;;;;;4753862;30;20094;-49
2022/06/03 00:22:44;;;;;;;7.25;2.17;;;;;;;;;;4753749;30;20076;-50
2022/06/03 00:25:29;;;;;;;3.33;2.10;;;;;;;;;;4753407;30;20055;-52
2022/06/03 00:28:38;;;;;;;7.55;2.47;;;;;;;;;;4753580;30;20135;-52
2022/06/03 00:31:27;;;;;;;3.53;1.85;;;;;;;;;;4753077;30;20513;-51
2022/06/03 00:34:43;;;;;;;4.93;1.80;;;;;;;;;;4753473;30;20050;-49
2022/06/03 00:37:22;;;;;;;2.15;1.75;;;;;;;;;;4755648;30;20067;-51
2022/06/03 00:40:31;;;;;;;3.40;2.03;;;;;;;;;;4771016;30;20056;-49
2022/06/03 00:43:23;;;;;;;4.18;2.00;;;;;;;;;;4750928;30;20145;-51
2022/06/03 00:46:04;;;;;;;6.18;2.28;;;;;;;;;;4751051;30;20086;-52
2022/06/03 00:49:13;;;;;;;4.50;2.20;;;;;;;;;;4766022;30;20117;-50
2022/06/03 00:51:48;;;;;;;5.00;3.28;;;;;;;;;;4771049;30;20044;-51
2022/06/03 00:54:40;;;;;;;4.63;2.80;;;;;;;;;;4770884;30;20072;-52
2022/06/03 00:57:34;;;;;;;7.78;2.85;;;;;;;;;;4771050;30;20126;-49
2022/06/03 01:00:21;;;;;;;4.53;2.90;;;;;;;;;;4770721;30;20056;-62
2022/06/03 01:03:02;;;;;;;10.30;2.92;;;;;;;;;;4770603;30;20056;-49
2022/06/03 01:05:32;;;;;;;6.18;3.28;;;;;;;;;;4770630;30;20535;-53
2022/06/03 01:08:06;;;;;;;4.25;3.15;;;;;;;;;;4770810;30;20046;-51
2022/06/03 01:10:52;;;;;;;6.57;2.72;;;;;;;;;;4770934;30;20047;-51
2022/06/03 01:13:28;;;;;;;5.43;2.97;;;;;;;;;;4770531;30;20126;-53
2022/06/03 01:16:14;;;;;;;5.13;3.08;;;;;;;;;;4770576;30;20564;-53
2022/06/03 01:18:59;;;;;;;6.10;2.90;;;;;;;;;;4770526;30;20408;-51
2022/06/03 01:21:39;;;;;;;5.57;3.20;;;;;;;;;;4770318;30;20047;-49
2022/06/03 01:24:25;;;;;;;9.40;3.03;;;;;;;;;;4770742;30;20523;-53
2022/06/03 01:27:22;;;;;;;5.15;3.00;;;;;;;;;;4769592;30;20075;-53
2022/06/03 01:29:58;;;;;;;4.15;2.92;;;;;;;;;;4770158;30;20051;-52
2022/06/03 01:32:39;;;;;;;6.47;3.50;;;;;;;;;;4770305;30;20048;-52
2022/06/03 01:35:16;;;;;;;7.13;3.70;;;;;;;;;;4770373;30;20463;-50
2022/06/03 01:37:49;;;;;;;5.57;3.40;;;;;;;;;;4763777;30;20535;-49
2022/06/03 01:40:38;;;;;;;4.88;3.67;;;;;;;;;;4752329;30;20055;-52
2022/06/03 01:43:17;;;;;;;4.55;3.70;;;;;;;;;;4752402;30;20060;-52
2022/06/03 01:46:20;;;;;;;6.10;3.97;;;;;;;;;;4752229;30;20143;-53
2022/06/03 01:48:57;;;;;;;8.30;3.97;;;;;;;;;;4752049;30;20090;-51
2022/06/03 01:51:42;;;;;;;8.52;4.05;;;;;;;;;;4752149;30;20133;-53
2022/06/03 01:54:33;;;;;;;6.25;4.10;;;;;;;;;;4752214;30;20102;-49
2022/06/03 01:57:06;;;;;;;8.48;4.20;;;;;;;;;;4751787;30;20477;-54
2022/06/03 02:00:02;;;;;;;6.32;3.50;;;;;;;;;;4752364;30;20105;-54
2022/06/03 02:02:38;;;;;;;7.22;3.85;;;;;;;;;;4751945;30;20408;-52
2022/06/03 02:05:32;;;;;;;4.75;3.85;;;;;;;;;;4752159;30;20451;-52
2022/06/03 02:08:11;;;;;;;7.15;3.88;;;;;;;;;;4751902;30;20079;-50
2022/06/03 02:10:41;;;;;;;8.43;4.28;;;;;;;;;;4751895;30;20139;-50
2022/06/03 02:13:35;;;;;;;7.47;3.95;;;;;;;;;;4751729;30;20505;-50
2022/06/03 02:16:21;;;;;;;9.43;4.32;;;;;;;;;;4751873;30;20127;-53
2022/06/03 02:19:01;;;;;;;5.70;3.85;;;;;;;;;;4751622;30;20052;-51
2022/06/03 02:21:38;;;;;;;8.27;5.05;;;;;;;;;;4751627;30;20114;-53
2022/06/03 02:24:18;;;;;;;6.28;3.72;;;;;;;;;;4751841;30;20123;-50
2022/06/03 02:27:00;;;;;;;7.38;4.63;;;;;;;;;;4751439;30;20090;-53
2022/06/03 02:33:12;;;;;;;7.25;4.50;;;;;;;;;;4751382;30;20417;-61
2022/06/03 02:35:52;;;;;;;5.60;4.38;;;;;;;;;;4751403;30;20517;-49
2022/06/03 02:38:58;;;;;;;37.88;18.80;;;;;;;;;;4762001;30;20086;-50
2022/06/03 02:41:36;;;;;;;16.13;8.77;;;;;;;;;;4769090;30;20051;-50
2022/06/03 02:44:24;;;;;;;8.02;4.43;;;;;;;;;;4769079;30;20067;-50
2022/06/03 02:47:21;;;;;;;9.65;4.53;;;;;;;;;;4768867;30;20079;-50
2022/06/03 02:50:14;;;;;;;5.78;4.07;;;;;;;;;;4769174;30;20055;-47
2022/06/03 02:53:13;;;;;;;6.40;4.03;;;;;;;;;;4761544;30;20138;-49
2022/06/03 02:55:47;;;;;;;80.68;34.55;;;;;;;;;;4769036;30;20481;-47
2022/06/03 02:58:26;;;;;;;10.93;6.32;;;;;;;;;;4768861;30;20067;-47
2022/06/03 03:01:12;;;;;;;5.63;4.35;;;;;;;;;;4768753;30;20063;-52
2022/06/03 03:03:57;;;;;;;4.90;4.05;;;;;;;;;;4768483;30;20059;-48
2022/06/03 03:06:50;;;;;;;5.25;3.78;;;;;;;;;;4768565;30;20083;-52
2022/06/03 03:09:35;;;;;;;4.80;3.63;;;;;;;;;;4768759;30;20055;-51
2022/06/03 03:12:33;;;;;;;6.75;3.78;;;;;;;;;;4768635;30;20093;-49
2022/06/03 03:15:06;;;;;;;4.65;3.80;;;;;;;;;;4768715;30;20058;-53
2022/06/03 03:17:46;;;;;;;7.93;3.38;;;;;;;;;;4768826;30;20578;-49
2022/06/03 03:20:45;;;;;;;7.90;3.83;;;;;;;;;;4768678;30;20075;-47
2022/06/03 03:23:45;;;;;;;4.47;3.75;;;;;;;;;;4768521;30;20052;-48
2022/06/03 03:26:21;;;;;;;51.08;29.35;;;;;;;;;;4748129;30;20090;-46
2022/06/03 03:29:16;;;;;;;29.38;10.95;;;;;;;;;;4750574;30;20087;-50
2022/06/03 03:32:08;;;;;;;5.15;3.47;;;;;;;;;;4750401;30;20044;-51
2022/06/03 03:35:11;;;;;;;7.93;3.40;;;;;;;;;;4764342;30;20056;-49
2022/06/03 03:38:02;;;;;;;7.20;3.10;;;;;;;;;;4756511;30;20044;-47
2022/06/03 03:41:07;;;;;;;5.95;3.38;;;;;;;;;;4768334;30;20056;-48
2022/06/03 03:44:11;;;;;;;4.13;3.10;;;;;;;;;;4768539;30;20516;-46
2022/06/03 03:47:02;;;;;;;4.03;2.65;;;;;;;;;;4768441;30;20044;-45
2022/06/03 03:49:45;;;;;;;7.00;2.83;;;;;;;;;;4770343;30;20071;-48
2022/06/03 03:52:33;;;;;;;6.95;2.85;;;;;;;;;;4771926;30;20052;-47
2022/06/03 03:55:29;;;;;;;9.77;2.78;;;;;;;;;;4771821;30;20088;-47
2022/06/03 03:58:18;;;;;;;34.80;20.75;;;;;;;;;;4767374;30;20068;-47
2022/06/03 04:01:12;;;;;;;5.35;2.72;;;;;;;;;;4771784;30;20086;-48
2022/06/03 04:04:07;;;;;;;5.30;2.50;;;;;;;;;;4771910;30;20047;-51
2022/06/03 04:06:53;;;;;;;4.40;2.75;;;;;;;;;;4771866;30;20050;-50
2022/06/03 04:09:38;;;;;;;3.10;2.30;;;;;;;;;;4771697;30;20062;-51
2022/06/03 04:12:47;;;;;;;4.88;2.28;;;;;;;;;;4771790;30;20068;-50
2022/06/03 04:15:56;;;;;;;4.88;2.30;;;;;;;;;;4769030;30;20103;-49
2022/06/03 04:18:59;;;;;;;3.97;1.88;;;;;;;;;;4762396;30;20074;-50
2022/06/03 04:21:43;;;;;;;10.80;5.73;;;;;;;;;;4771596;30;20047;-48
2022/06/03 04:24:29;;;;;;;;;;;;;;;;;;4771781;30;20349;-48
2022/06/03 04:27:02;;;;;;;3.92;2.13;;;;;;;;;;4771268;30;19925;-49
2022/06/03 04:30:01;;;;;;;5.03;2.00;;;;;;;;;;4771384;30;20050;-47
2022/06/03 04:32:46;;;;;;;7.45;1.73;;;;;;;;;;4771227;30;20055;-47
2022/06/03 04:35:37;;;;;;;2.80;1.50;;;;;;;;;;4771083;30;20082;-47
2022/06/03 04:38:41;;;;;;;2.72;1.52;;;;;;;;;;4762264;30;20099;-48
2022/06/03 04:41:17;;;;;;;3.40;1.30;;;;;;;;;;4753300;30;20052;-48
2022/06/03 04:44:03;;;;;;;4.57;1.10;;;;;;;;;;4753090;30;20460;-47
2022/06/03 04:47:23;;;;;;;1.98;1.13;;;;;;;;;;4753276;30;20052;-47
2022/06/03 04:50:08;;;;;;;17.48;9.20;;;;;;;;;;4753100;30;20582;-46
2022/06/03 04:53:15;;;;;;;2.83;1.50;;;;;;;;;;4753126;30;20055;-51
2022/06/03 04:55:55;;;;;;;5.32;1.60;;;;;;;;;;4752934;30;20056;-49
2022/06/03 04:59:11;;;;;;;6.40;1.48;;;;;;;;;;4766446;30;20056;-51
2022/06/03 05:02:26;;;;;;;3.42;1.67;;;;;;;;;;4734753;30;20502;-45
2022/06/03 05:05:13;;;;;;;2.60;1.45;;;;;;;;;;4752913;30;20532;-47
2022/06/03 05:08:30;;;;;;;4.22;1.40;;;;;;;;;;4752925;30;20060;-49
2022/06/03 05:11:25;;;;;;;4.95;1.58;;;;;;;;;;4752836;30;20060;-47
2022/06/03 05:14:30;;;;;;;2.75;1.70;;;;;;;;;;4752876;30;20442;-52
2022/06/03 05:17:15;;;;;;;2.20;1.42;;;;;;;;;;4752571;30;20044;-48
2022/06/03 05:20:05;;;;;;;2.58;1.60;;;;;;;;;;4752744;30;20048;-47
2022/06/03 05:22:41;;;;;;;3.45;1.45;;;;;;;;;;4752681;30;20048;-48
2022/06/03 05:25:30;;;;;;;3.15;1.70;;;;;;;;;;4752654;30;20064;-48
2022/06/03 05:28:00;;;;;;;3.30;1.52;;;;;;;;;;4752433;30;20060;-47
2022/06/03 05:30:40;;;;;;;4.55;1.95;;;;;;;;;;4752377;30;20599;-49
2022/06/03 05:33:26;;;;;;;5.00;1.50;;;;;;;;;;4752761;30;20048;-49
2022/06/03 05:36:24;;;;;;;4.47;1.70;;;;;;;;;;4752387;30;20052;-58
2022/06/03 05:39:06;;;;;;;2.55;1.48;;;;;;;;;;4767123;30;20044;-45
2022/06/03 05:42:27;;;;;;;2.20;1.25;;;;;;;;;;4770382;30;20048;-50
2022/06/03 05:45:22;;;;;;;2.67;1.30;;;;;;;;;;4769892;30;20043;-46
2022/06/03 05:47:52;;;;;;;1.55;1.27;;;;;;;;;;4769952;30;20079;-48
2022/06/03 05:50:29;;;;;;;7.88;1.35;;;;;;;;;;4769809;30;20048;-51
2022/06/03 05:53:18;;;;;;;12.60;1.63;;;;;;;;;;4769922;30;20455;-46
2022/06/03 05:56:31;;;;;;;2.13;1.17;;;;;;;;;;4769838;30;20039;-46
2022/06/03 05:59:04;;;;;;;3.27;0.97;;;;;;;;;;4769793;30;20218;-49
2022/06/03 06:01:44;;;;;;;2.40;1.10;;;;;;;;;;4769744;30;20053;-47
2022/06/03 06:04:26;;;;;;;4.32;1.30;;;;;;;;;;4769743;30;20092;-47
2022/06/03 06:07:23;;;;;;;4.07;1.10;;;;;;;;;;4769500;30;20055;-48
2022/06/03 06:09:54;;;;;;;5.72;1.30;;;;;;;;;;4769440;30;20043;-49
2022/06/03 06:12:44;;;;;;;8.70;1.52;;;;;;;;;;4769236;30;20093;-45
2022/06/03 06:15:45;;;;;;;3.22;1.60;;;;;;;;;;4769528;30;20125;-45
2022/06/03 06:18:49;;;;;;;2.95;1.40;;;;;;;;;;4769571;30;20054;-47
2022/06/03 06:21:23;;;;;;;6.97;1.63;;;;;;;;;;4769329;30;20126;-49
2022/06/03 06:24:16;;;;;;;2.40;1.38;;;;;;;;;;4769281;30;20158;-47
2022/06/03 06:27:02;;;;;;;7.03;1.95;;;;;;;;;;4769210;30;20126;-47
2022/06/03 06:29:50;;;;;;;2.45;1.73;;;;;;;;;;4769351;30;20131;-49
2022/06/03 06:32:23;;;;;;;3.83;1.75;;;;;;;;;;4769171;30;20055;-46
2022/06/03 06:35:08;;;;;;;4.55;1.88;;;;;;;;;;4768986;30;20039;-48
2022/06/03 06:38:18;;;;;;;3.38;1.40;;;;;;;;;;4763985;30;20056;-49
2022/06/03 06:41:14;;;;;;;3.55;1.20;;;;;;;;;;4751241;30;20512;-49
2022/06/03 06:44:08;;;;;;;3.53;1.65;;;;;;;;;;4749556;30;20083;-48
2022/06/03 06:46:55;;;;;;;1.67;1.08;;;;;;;;;;4751314;30;20044;-45
2022/06/03 06:49:48;;;;;;;2.30;1.15;;;;;;;;;;4751243;30;20405;-50
2022/06/03 06:52:28;;;;;;;5.67;1.10;;;;;;;;;;4751299;30;20052;-49
2022/06/03 06:55:30;;;;;;;1.83;0.90;;;;;;;;;;4750870;30;20327;-47
2022/06/03 06:58:03;;;;;;;4.50;0.70;;;;;;;;;;4744929;30;20528;-48
2022/06/03 07:00:40;;;;;;;1.35;0.93;;;;;;;;;;4751123;30;20105;-48
2022/06/03 07:03:26;;;;;;;1.92;0.90;;;;;;;;;;4751287;30;20131;-46
2022/06/03 07:06:03;;;;;;;3.00;0.80;;;;;;;;;;4751138;30;20079;-49
2022/06/03 07:08:43;;;;;;;1.50;0.77;;;;;;;;;;4751013;30;20523;-52
2022/06/03 07:11:40;;;;;;;2.53;0.88;;;;;;;;;;4750944;30;20044;-50
2022/06/03 07:14:14;;;;;;;3.20;1.75;;;;;;;;;;4741581;30;20064;-47
2022/06/03 07:20:06;;;;;;;2.20;1.30;;;;;;;;;;4750869;30;20048;-48
2022/06/03 07:22:56;;;;;;;4.10;1.30;;;;;;;;;;4750725;30;20500;-47
2022/06/03 07:25:39;;;;;;;2.10;1.25;;;;;;;;;;4750838;30;20101;-48
2022/06/03 07:28:22;;;;;;;2.05;1.27;;;;;;;;;;4751020;30;20060;-48
2022/06/03 07:31:01;;;;;;;2.90;1.20;;;;;;;;;;4750872;30;20135;-51
2022/06/03 07:33:31;;;;;;;2.80;1.30;;;;;;;;;;4750707;30;20288;-48
2022/06/03 07:36:37;;;;;;;2.15;1.40;;;;;;;;;;4750749;30;20110;-47
2022/06/03 07:39:26;;;;;;;2.42;1.23;;;;;;;;;;4731080;30;20127;-48
2022/06/03 07:42:09;;;;;;;3.08;1.20;;;;;;;;;;4767734;30;20063;-46
2022/06/03 07:44:59;;;;;;;2.30;1.42;;;;;;;;;;4768348;30;20105;-46
2022/06/03 07:47:28;;;;;;;2.15;1.08;;;;;;;;;;4768055;30;20067;-49
2022/06/03 07:50:01;;;;;;;5.75;1.60;;;;;;;;;;4768354;30;20044;-51
2022/06/03 07:52:40;;;;;;;3.05;1.13;;;;;;;;;;4768322;30;20052;-48
2022/06/03 07:55:13;;;;;;;1.63;0.93;;;;;;;;;;4768501;30;20086;-46
2022/06/03 07:57:40;;;;;;;1.98;1.23;;;;;;;;;;4768170;30;20040;-49
2022/06/03 08:00:15;;;;;;;2.90;1.30;;;;;;;;;;4768514;30;20390;-44
2022/06/03 08:02:43;;;;;;;4.15;1.13;;;;;;;;;;4781508;30;20086;-48
2022/06/03 08:05:17;;;;;;;2.15;1.30;;;;;;;;;;4768310;30;20075;-48
2022/06/03 08:10:58;;;;;;;6.40;1.33;;;;;;;;;;4768170;30;20048;-47
2022/06/03 08:13:39;;;;;;;1.65;0.95;;;;;;;;;;4768043;30;20077;-49
2022/06/03 08:16:14;;;;;;;2.13;1.05;;;;;;;;;;4768367;30;20054;-48
2022/06/03 08:18:43;;;;;;;3.10;0.95;;;;;;;;;;4768122;30;20044;-47
2022/06/03 08:21:15;;;;;;;5.50;1.20;;;;;;;;;;4767950;30;20074;-46
2022/06/03 08:23:43;;;;;;;3.95;1.60;;;;;;;;;;4761559;30;20045;-48
2022/06/03 08:26:16;;;;;;;5.43;1.20;;;;;;;;;;4750318;30;20124;-48
2022/06/03 08:28:50;;;;;;;1.58;1.10;;;;;;;;;;4749944;30;20060;-49
2022/06/03 08:31:22;;;;;;;12.63;8.02;;;;;;;;;;4750433;30;20072;-47
2022/06/03 08:33:53;;;;;;;5.15;1.63;;;;;;;;;;4750037;30;20587;-49
2022/06/03 08:36:41;;;;;;;1.85;1.10;;;;;;;;;;4753431;30;20076;-47
2022/06/03 08:39:19;;;;;;;2.15;1.30;;;;;;;;;;4753481;30;20413;-46
2022/06/03 08:42:05;;;;;;;5.57;1.40;;;;;;;;;;4753412;30;20072;-55
2022/06/03 08:45:05;;;;;;;3.75;1.30;;;;;;;;;;4753069;30;20060;-49
2022/06/03 08:47:47;;;;;;;37.25;19.17;;;;;;;;;;4744181;30;20060;-47
2022/06/03 08:50:47;;;;;;;6.70;1.88;;;;;;;;;;4753043;30;20045;-51
2022/06/03 08:53:30;;;;;;;4.28;1.30;;;;;;;;;;4747157;30;20060;-47
2022/06/03 08:55:59;;;;;;;3.92;1.30;;;;;;;;;;4752886;30;20054;-48
2022/06/03 08:58:48;;;;;;;2.00;1.10;;;;;;;;;;4753026;30;20044;-46
2022/06/03 09:01:35;;;;;;;2.80;1.35;;;;;;;;;;4753120;30;20478;-48
2022/06/03 09:04:30;;;;;;;5.47;1.33;;;;;;;;;;4752893;30;20051;-47
2022/06/03 09:07:20;;;;;;;76.20;59.90;;;;;;;;;;4752647;30;20041;-49
2022/06/03 09:10:07;;;;;;;50.85;30.48;;;;;;;;;;4752892;30;20114;-47
2022/06/03 09:12:51;;;;;;;8.63;4.78;;;;;;;;;;4752733;30;20135;-45
2022/06/03 09:15:26;;;;;;;4.13;1.67;;;;;;;;;;4752858;30;20086;-49
2022/06/03 09:17:58;;;;;;;4.70;1.45;;;;;;;;;;4752594;30;20098;-47
2022/06/03 09:20:29;;;;;;;3.80;1.23;;;;;;;;;;4752718;30;20414;-52
2022/06/03 09:23:03;;;;;;;4.45;1.27;;;;;;;;;;4752367;30;20132;-48
2022/06/03 09:25:32;;;;;;;3.08;1.15;;;;;;;;;;4752548;30;20127;-48
2022/06/03 09:28:04;;;;;;;4.45;1.80;;;;;;;;;;4752509;30;20117;-48
2022/06/03 09:30:37;;;;;;;3.33;1.25;;;;;;;;;;4752565;30;20045;-51
2022/06/03 09:33:09;;;;;;;5.43;1.75;;;;;;;;;;4752416;30;20123;-50
2022/06/03 09:35:44;;;;;;;141.60;64.10;;;;;;;;;;4752584;30;20048;-49
2022/06/03 09:38:14;;;;;;;30.48;16.77;;;;;;;;;;4762038;30;20054;-48
2022/06/03 09:40:44;;;;;;;1.65;0.98;;;;;;;;;;4770211;30;20066;-52
2022/06/03 09:43:22;;;;;;;2.90;1.10;;;;;;;;;;4769898;30;20052;-48
2022/06/03 09:45:52;;;;;;;4.60;1.40;;;;;;;;;;4769400;30;20083;-48
2022/06/03 09:48:24;;;;;;;3.47;1.10;;;;;;;;;;4769804;30;20039;-46
2022/06/03 09:50:52;;;;;;;3.88;1.08;;;;;;;;;;4770019;30;20044;-48
2022/06/03 09:53:24;;;;;;;3.88;1.45;;;;;;;;;;4769826;30;20053;-47
2022/06/03 09:55:54;;;;;;;10.73;1.42;;;;;;;;;;4768642;30;20060;-47
2022/06/03 09:58:29;;;;;;;3.17;1.20;;;;;;;;;;4769663;30;20055;-51
2022/06/03 10:00:58;;;;;;;4.25;1.52;;;;;;;;;;4769614;30;20105;-52
2022/06/03 10:03:26;;;;;;;4.70;1.10;;;;;;;;;;4769867;30;20447;-49
2022/06/03 10:05:58;;;;;;;2.63;1.08;;;;;;;;;;4769806;30;20040;-49
2022/06/03 10:08:29;;;;;;;2.25;1.17;;;;;;;;;;4769505;30;20055;-49
2022/06/03 10:13:42;;;;;;;3.30;1.88;;;;;;;;;;4769597;30;20126;-61
2022/06/03 10:16:13;;;;;;;3.15;1.17;;;;;;;;;;4769735;30;20156;-45
2022/06/03 10:18:46;;;;;;;2.38;1.23;;;;;;;;;;4769528;30;20055;-46
2022/06/03 10:21:14;;;;;;;2.30;1.17;;;;;;;;;;4769403;30;20051;-46
2022/06/03 10:24:12;;;;;;;3.33;1.20;;;;;;;;;;4769387;30;20381;-47
2022/06/03 10:26:48;;;;;;;3.70;1.40;;;;;;;;;;4769015;30;20056;-48
2022/06/03 10:29:22;;;;;;;2.85;1.13;;;;;;;;;;4769445;30;20048;-49
2022/06/03 10:31:54;;;;;;;3.30;1.33;;;;;;;;;;4769187;30;20080;-49
2022/06/03 10:34:35;;;;;;;5.30;1.20;;;;;;;;;;4769283;30;20059;-48
2022/06/03 10:37:10;;;;;;;48.90;26.05;;;;;;;;;;4767720;30;20130;-50
2022/06/03 10:39:41;;;;;;;5.65;1.73;;;;;;;;;;4751505;30;20044;-48
2022/06/03 10:42:19;;;;;;;4.88;1.30;;;;;;;;;;4750335;30;20132;-46
2022/06/03 10:44:48;;;;;;;3.10;1.00;;;;;;;;;;4751104;30;20143;-48
2022/06/03 10:47:34;;;;;;;3.92;1.30;;;;;;;;;;4751332;30;20056;-48
2022/06/03 10:50:25;;;;;;;1.40;1.10;;;;;;;;;;4751274;30;20052;-47
2022/06/03 11:01:58;;;;;;;2.00;1.23;;;;;;;;;;4751203;30;20080;-51
2022/06/03 11:04:37;;;;;;;2.40;1.48;;;;;;;;;;4749963;30;20044;-47
2022/06/03 11:07:23;;;;;;;1.25;1.02;;;;;;;;;;4750818;30;20055;-49
2022/06/03 11:09:56;;;;;;;4.15;1.35;;;;;;;;;;4750804;30;20097;-51
2022/06/03 11:12:26;;;;;;;2.80;1.40;;;;;;;;;;4751093;30;20130;-50
2022/06/03 11:14:53;;;;;;;2.70;1.40;;;;;;;;;;4751035;30;20041;-52
2022/06/03 11:17:20;;;;;;;2.85;1.33;;;;;;;;;;4751047;30;20056;-49
2022/06/03 11:19:52;;;;;;;2.15;1.70;;;;;;;;;;4750758;30;20091;-50
2022/06/03 11:22:23;;;;;;;2.72;1.60;;;;;;;;;;4750948;30;20056;-47
2022/06/03 11:24:55;;;;;;;3.30;1.60;;;;;;;;;;4750790;30;20489;-50
2022/06/03 11:27:49;;;;;;;4.07;1.98;;;;;;;;;;4750917;30;20177;-51
2022/06/03 11:30:51;;;;;;;3.57;1.40;;;;;;;;;;4749571;30;20118;-50
2022/06/03 11:33:54;;;;;;;3.40;1.80;;;;;;;;;;4750776;30;20292;-50
2022/06/03 11:36:42;;;;;;;5.35;2.30;;;;;;;;;;4740452;30;20128;-47
2022/06/03 11:39:23;;;;;;;6.20;1.95;;;;;;;;;;4767559;30;20052;-48
2022/06/03 11:42:06;;;;;;;4.40;2.10;;;;;;;;;;4782235;30;20619;-49
2022/06/03 11:44:50;;;;;;;2.83;2.20;;;;;;;;;;4768244;30;20550;-48
2022/06/03 11:47:26;;;;;;;3.80;2.45;;;;;;;;;;4768386;30;20134;-48
2022/06/03 11:49:54;;;;;;;6.47;3.20;;;;;;;;;;4768406;30;20048;-50
2022/06/03 11:52:22;;;;;;;5.40;2.70;;;;;;;;;;4768238;30;20047;-48
2022/06/03 11:54:51;;;;;;;3.97;2.97;;;;;;;;;;4768407;30;20043;-49
2022/06/03 11:57:19;;;;;;;8.20;2.72;;;;;;;;;;4768379;30;20119;-47
2022/06/03 11:59:56;;;;;;;5.15;2.58;;;;;;;;;;4768401;30;20127;-49
2022/06/03 12:02:32;;;;;;;4.13;2.38;;;;;;;;;;4768315;30;20119;-48
2022/06/03 12:05:12;;;;;;;3.13;2.25;;;;;;;;;;4768240;30;20059;-47
2022/06/03 12:07:56;;;;;;;4.07;2.63;;;;;;;;;;4768345;30;20048;-47
2022/06/03 12:10:30;;;;;;;17.58;9.73;;;;;;;;;;4770094;30;20432;-46
2022/06/03 12:13:26;;;;;;;51.25;28.65;;;;;;;;;;4771562;30;20047;-51
2022/06/03 12:15:54;;;;;;;5.93;3.60;;;;;;;;;;4771589;30;20052;-49
2022/06/03 12:18:31;;;;;;;3.63;2.30;;;;;;;;;;4771433;30;20052;-51
2022/06/03 12:21:23;;;;;;;3.88;2.45;;;;;;;;;;4771409;30;20122;-51
2022/06/03 12:23:53;;;;;;;3.13;2.28;;;;;;;;;;4765147;30;20142;-49
2022/06/03 12:26:27;;;;;;;3.50;2.22;;;;;;;;;;4771172;30;20101;-51
2022/06/03 12:29:10;;;;;;;4.45;2.70;;;;;;;;;;4771204;30;20075;-48
2022/06/03 12:31:44;;;;;;;5.75;2.92;;;;;;;;;;4771608;30;20081;-48
2022/06/03 12:34:22;;;;;;;3.70;2.30;;;;;;;;;;4771335;30;20052;-47
2022/06/03 12:37:20;;;;;;;3.80;2.40;;;;;;;;;;4771094;30;20051;-51
2022/06/03 12:39:56;;;;;;;4.93;2.70;;;;;;;;;;4735694;30;20386;-49
2022/06/03 12:42:26;;;;;;;3.10;2.42;;;;;;;;;;4735648;30;20106;-49
2022/06/03 12:44:56;;;;;;;3.60;2.47;;;;;;;;;;4749935;30;20052;-48
2022/06/03 12:47:35;;;;;;;5.82;2.72;;;;;;;;;;4753242;30;20056;-48
2022/06/03 12:50:05;;;;;;;5.50;3.15;;;;;;;;;;4753162;30;20044;-51
2022/06/03 12:52:35;;;;;;;5.60;2.95;;;;;;;;;;4753343;30;20044;-48
2022/06/03 12:55:12;;;;;;;7.78;4.75;;;;;;;;;;4766682;30;20409;-46
2022/06/03 12:57:45;;;;;;;3.85;2.90;;;;;;;;;;4753052;30;20056;-50
2022/06/03 13:00:18;;;;;;;3.85;2.70;;;;;;;;;;4753156;30;20570;-47
2022/06/03 13:02:52;;;;;;;5.75;2.83;;;;;;;;;;4752870;30;20052;-48
2022/06/03 13:05:44;;;;;;;3.83;2.33;;;;;;;;;;4751722;30;20080;-50
2022/06/03 13:08:34;;;;;;;4.65;2.63;;;;;;;;;;4752973;30;20127;-49
2022/06/03 13:11:03;;;;;;;3.95;3.05;;;;;;;;;;4752806;30;20118;-47
2022/06/03 13:13:31;;;;;;;2.95;2.30;;;;;;;;;;4753057;30;20088;-51
2022/06/03 13:16:26;;;;;;;3.75;2.47;;;;;;;;;;4752901;30;20119;-47
2022/06/03 13:18:54;;;;;;;4.45;2.55;;;;;;;;;;4753839;30;20110;-52
2022/06/03 13:21:25;;;;;;;4.10;2.03;;;;;;;;;;4752236;30;20117;-49
2022/06/03 13:24:21;;;;;;;7.38;2.92;;;;;;;;;;4752671;30;20188;-49
2022/06/03 13:26:51;;;;;;;3.50;2.60;;;;;;;;;;4752324;30;20048;-48
2022/06/03 13:29:49;;;;;;;4.10;2.40;;;;;;;;;;4752781;30;20091;-51
2022/06/03 13:32:36;;;;;;;6.18;2.38;;;;;;;;;;4752550;30;20064;-49
2022/06/03 13:35:25;;;;;;;3.58;2.40;;;;;;;;;;4752076;30;20044;-51
2022/06/03 13:37:55;;;;;;;3.08;2.10;;;;;;;;;;4759933;30;20483;-50
2022/06/03 13:40:25;;;;;;;4.38;2.65;;;;;;;;;;4770357;30;20086;-48
2022/06/03 13:42:58;;;;;;;3.05;2.13;;;;;;;;;;4769941;30;20063;-49
2022/06/03 13:45:46;;;;;;;3.47;2.10;;;;;;;;;;4770028;30;20102;-48
2022/06/03 13:48:47;;;;;;;4.05;2.20;;;;;;;;;;4770039;30;20043;-49
2022/06/03 13:51:28;;;;;;;4.95;2.40;;;;;;;;;;4768316;30;20066;-48
2022/06/03 13:54:16;;;;;;;5.57;2.17;;;;;;;;;;4769871;30;20059;-46
2022/06/03 13:56:57;;;;;;;5.13;2.33;;;;;;;;;;4769986;30;20048;-50
2022/06/03 13:59:25;;;;;;;3.97;2.03;;;;;;;;;;4769787;30;20054;-51
2022/06/03 14:01:54;;;;;;;6.32;2.40;;;;;;;;;;4769893;30;20056;-46
2022/06/03 14:04:31;;;;;;;3.28;2.30;;;;;;;;;;4769761;30;20055;-50
2022/06/03 14:07:06;;;;;;;3.05;2.17;;;;;;;;;;4769654;30;20509;-48
2022/06/03 14:09:47;;;;;;;3.17;2.17;;;;;;;;;;4769570;30;20579;-49
2022/06/03 14:12:21;;;;;;;3.28;2.20;;;;;;;;;;4769455;30;20505;-48
2022/06/03 14:15:07;;;;;;;3.03;2.08;;;;;;;;;;4769478;30;20130;-51
2022/06/03 14:17:46;;;;;;;3.47;2.20;;;;;;;;;;4769560;30;20040;-48
2022/06/03 14:20:35;;;;;;;3.05;2.13;;;;;;;;;;4769494;30;20055;-49
2022/06/03 14:23:09;;;;;;;3.67;2.60;;;;;;;;;;4768055;30;20052;-49
2022/06/03 14:25:52;;;;;;;4.25;2.67;;;;;;;;;;4769616;30;20119;-51
2022/06/03 14:28:40;;;;;;;4.35;2.88;;;;;;;;;;4769415;30;20520;-51
2022/06/03 14:31:15;;;;;;;4.63;3.05;;;;;;;;;;4769632;30;20075;-47
2022/06/03 14:33:48;;;;;;;2.92;2.33;;;;;;;;;;4769003;30;20101;-47
2022/06/03 14:36:19;;;;;;;4.20;2.80;;;;;;;;;;4769268;30;20104;-48
2022/06/03 14:38:58;;;;;;;3.75;2.42;;;;;;;;;;4755164;30;20414;-48
2022/06/03 14:41:29;;;;;;;5.20;2.97;;;;;;;;;;4751400;30;20044;-49
2022/06/03 14:43:59;;;;;;;4.65;2.80;;;;;;;;;;4751153;30;20090;-50
2022/06/03 14:47:00;;;;;;;4.35;3.00;;;;;;;;;;4751237;30;20052;-51
2022/06/03 14:49:36;;;;;;;5.35;2.92;;;;;;;;;;4750215;30;20088;-47
2022/06/03 14:52:12;;;;;;;6.18;3.08;;;;;;;;;;4753056;30;20102;-53
2022/06/03 14:54:44;;;;;;;4.97;2.97;;;;;;;;;;4752245;30;20048;-49
2022/06/03 14:57:20;;;;;;;3.60;3.03;;;;;;;;;;4751233;30;20045;-46
2022/06/03 15:00:21;;;;;;;5.00;3.70;;;;;;;;;;4750718;30;20420;-51
2022/06/03 15:03:12;;;;;;;3.97;3.08;;;;;;;;;;4751044;30;20063;-49
2022/06/03 15:05:56;;;;;;;6.80;3.58;;;;;;;;;;4751215;30;20052;-48
2022/06/03 15:08:29;;;;;;;3.70;3.03;;;;;;;;;;4751082;30;20044;-50
2022/06/03 15:11:22;;;;;;;6.18;2.80;;;;;;;;;;4750793;30;20051;-52
2022/06/03 15:13:52;;;;;;;5.30;3.42;;;;;;;;;;4750960;30;20079;-49
2022/06/03 15:16:19;;;;;;;6.30;3.50;;;;;;;;;;4751046;30;20163;-48
2022/06/03 15:18:50;;;;;;;5.32;3.72;;;;;;;;;;4750916;30;20054;-50
2022/06/03 15:21:34;;;;;;;4.68;3.60;;;;;;;;;;4750868;30;20055;-51
2022/06/03 15:24:05;;;;;;;4.25;3.17;;;;;;;;;;4750841;30;20055;-49
2022/06/03 15:26:38;;;;;;;3.85;2.70;;;;;;;;;;4750898;30;20129;-48
2022/06/03 15:29:10;;;;;;;3.75;3.00;;;;;;;;;;4750642;30;20127;-49
2022/06/03 15:31:38;;;;;;;5.50;2.50;;;;;;;;;;4750989;30;20094;-49
2022/06/03 15:34:11;;;;;;;3.22;2.10;;;;;;;;;;4750772;30;20051;-48
2022/06/03 15:36:46;;;;;;;3.08;2.45;;;;;;;;;;4764521;30;20052;-51
2022/06/03 15:39:35;;;;;;;3.75;2.08;;;;;;;;;;4768300;30;20051;-47
2022/06/03 15:42:10;;;;;;;2.88;2.08;;;;;;;;;;4768335;30;20048;-51
2022/06/03 15:44:41;;;;;;;4.35;1.95;;;;;;;;;;4769460;30;20529;-47
2022/06/03 15:47:26;;;;;;;3.10;2.20;;;;;;;;;;4772233;30;20064;-50
2022/06/03 15:50:15;;;;;;;2.53;1.70;;;;;;;;;;4771974;30;20047;-49
2022/06/03 15:52:51;;;;;;;9.68;6.22;;;;;;;;;;4756481;30;20109;-46
2022/06/03 15:55:43;;;;;;;4.65;2.90;;;;;;;;;;4770802;30;20075;-49
2022/06/03 15:58:53;;;;;;;3.63;2.20;;;;;;;;;;4770777;30;20122;-49
2022/06/03 16:01:29;;;;;;;2.67;1.98;;;;;;;;;;4766953;30;20055;-46
2022/06/03 16:04:07;;;;;;;4.82;2.28;;;;;;;;;;4771864;30;20101;-49
2022/06/03 16:06:50;;;;;;;3.03;2.10;;;;;;;;;;4771791;30;20044;-47
2022/06/03 16:09:33;;;;;;;2.80;2.17;;;;;;;;;;4771650;30;20135;-47
2022/06/03 16:12:19;;;;;;;3.95;2.25;;;;;;;;;;4771710;30;20105;-49
2022/06/03 16:14:49;;;;;;;19.17;10.05;;;;;;;;;;4771818;30;20055;-49
2022/06/03 16:17:32;;;;;;;4.65;3.00;;;;;;;;;;4771674;30;20146;-50
2022/06/03 16:20:13;;;;;;;3.50;2.33;;;;;;;;;;4771627;30;20047;-48
2022/06/03 16:23:03;;;;;;;5.18;2.30;;;;;;;;;;4771825;30;20084;-51
2022/06/03 16:25:58;;;;;;;5.63;2.03;;;;;;;;;;4771672;30;20134;-52
2022/06/03 16:28:47;;;;;;;3.95;2.30;;;;;;;;;;4771554;30;20060;-48
2022/06/03 16:31:21;;;;;;;4.60;2.30;;;;;;;;;;4771309;30;20052;-47
2022/06/03 16:34:07;;;;;;;3.15;2.60;;;;;;;;;;4771215;30;20059;-48
2022/06/03 16:36:46;;;;;;;3.97;2.30;;;;;;;;;;4771204;30;20516;-49
2022/06/03 16:39:19;;;;;;;4.10;2.70;;;;;;;;;;4753580;30;20044;-48